sensor_id;sensor_type;location;lat;lon;timestamp;P1;durP1;ratioP1;P2;durP2;ratioP2
54795;SDS011;40693;43.884;20.340;2023-08-21T00:01:42;13.90;;;11.60;;
54795;SDS011;40693;43.884;20.340;2023-08-21T00:04:08;12.52;;;11.32;;
54795;SDS011;40693;43.884;20.340;2023-08-21T00:06:34;17.15;;;12.60;;
54795;SDS011;40693;43.884;20.340;2023-08-21T00:09:00;13.77;;;10.77;;
54795;SDS011;40693;43.884;20.340;2023-08-21T00:11:27;15.05;;;13.48;;
54795;SDS011;40693;43.884;20.340;2023-08-21T00:13:52;16.00;;;13.18;;
54795;SDS011;40693;43.884;20.340;2023-08-21T00:16:18;13.07;;;11.57;;
54795;SDS011;40693;43.884;20.340;2023-08-21T00:18:44;12.60;;;11.10;;
54795;SDS011;40693;43.884;20.340;2023-08-21T00:21:10;15.60;;;11.95;;
54795;SDS011;40693;43.884;20.340;2023-08-21T00:23:36;17.73;;;12.27;;
54795;SDS011;40693;43.884;20.340;2023-08-21T00:26:01;16.73;;;12.13;;
54795;SDS011;40693;43.884;20.340;2023-08-21T00:28:27;14.55;;;13.02;;
54795;SDS011;40693;43.884;20.340;2023-08-21T00:31:03;17.77;;;12.40;;
54795;SDS011;40693;43.884;20.340;2023-08-21T00:33:33;14.43;;;12.40;;
54795;SDS011;40693;43.884;20.340;2023-08-21T00:35:59;13.55;;;11.77;;
54795;SDS011;40693;43.884;20.340;2023-08-21T00:38:25;17.05;;;12.38;;
54795;SDS011;40693;43.884;20.340;2023-08-21T00:40:51;20.58;;;12.82;;
54795;SDS011;40693;43.884;20.340;2023-08-21T00:43:17;15.02;;;13.43;;
54795;SDS011;40693;43.884;20.340;2023-08-21T00:45:44;21.83;;;19.60;;
54795;SDS011;40693;43.884;20.340;2023-08-21T00:48:11;17.48;;;15.88;;
54795;SDS011;40693;43.884;20.340;2023-08-21T00:50:38;17.67;;;15.18;;
54795;SDS011;40693;43.884;20.340;2023-08-21T00:53:04;14.98;;;12.88;;
54795;SDS011;40693;43.884;20.340;2023-08-21T00:55:31;16.02;;;13.00;;
54795;SDS011;40693;43.884;20.340;2023-08-21T00:57:57;13.77;;;12.38;;
54795;SDS011;40693;43.884;20.340;2023-08-21T01:00:25;14.57;;;13.05;;
54795;SDS011;40693;43.884;20.340;2023-08-21T01:02:52;13.38;;;12.07;;
54795;SDS011;40693;43.884;20.340;2023-08-21T01:05:18;14.82;;;12.43;;
54795;SDS011;40693;43.884;20.340;2023-08-21T01:07:57;16.85;;;12.80;;
54795;SDS011;40693;43.884;20.340;2023-08-21T01:15:44;15.82;;;12.32;;
54795;SDS011;40693;43.884;20.340;2023-08-21T01:18:11;18.27;;;13.98;;
54795;SDS011;40693;43.884;20.340;2023-08-21T01:20:38;12.65;;;11.35;;
54795;SDS011;40693;43.884;20.340;2023-08-21T01:23:04;15.10;;;12.00;;
54795;SDS011;40693;43.884;20.340;2023-08-21T01:25:31;14.55;;;12.75;;
54795;SDS011;40693;43.884;20.340;2023-08-21T01:27:57;19.52;;;12.35;;
54795;SDS011;40693;43.884;20.340;2023-08-21T01:30:23;14.43;;;12.88;;
54795;SDS011;40693;43.884;20.340;2023-08-21T01:35:30;16.30;;;13.43;;
54795;SDS011;40693;43.884;20.340;2023-08-21T01:37:58;13.73;;;12.00;;
54795;SDS011;40693;43.884;20.340;2023-08-21T01:40:24;15.90;;;12.57;;
54795;SDS011;40693;43.884;20.340;2023-08-21T01:42:52;14.57;;;12.02;;
54795;SDS011;40693;43.884;20.340;2023-08-21T01:45:18;16.60;;;12.70;;
54795;SDS011;40693;43.884;20.340;2023-08-21T01:47:43;14.65;;;12.10;;
54795;SDS011;40693;43.884;20.340;2023-08-21T01:50:09;14.63;;;13.13;;
54795;SDS011;40693;43.884;20.340;2023-08-21T01:52:35;15.98;;;12.93;;
54795;SDS011;40693;43.884;20.340;2023-08-21T01:55:01;16.92;;;11.60;;
54795;SDS011;40693;43.884;20.340;2023-08-21T01:57:26;14.45;;;12.45;;
54795;SDS011;40693;43.884;20.340;2023-08-21T01:59:52;14.30;;;12.82;;
54795;SDS011;40693;43.884;20.340;2023-08-21T02:02:18;14.48;;;12.52;;
54795;SDS011;40693;43.884;20.340;2023-08-21T02:04:43;14.27;;;12.05;;
54795;SDS011;40693;43.884;20.340;2023-08-21T02:07:09;16.00;;;13.13;;
54795;SDS011;40693;43.884;20.340;2023-08-21T02:09:35;14.98;;;11.98;;
54795;SDS011;40693;43.884;20.340;2023-08-21T02:12:00;16.95;;;14.32;;
54795;SDS011;40693;43.884;20.340;2023-08-21T02:14:26;13.57;;;12.25;;
54795;SDS011;40693;43.884;20.340;2023-08-21T02:16:53;13.93;;;12.63;;
54795;SDS011;40693;43.884;20.340;2023-08-21T02:19:18;23.58;;;12.50;;
54795;SDS011;40693;43.884;20.340;2023-08-21T02:21:44;13.45;;;11.68;;
54795;SDS011;40693;43.884;20.340;2023-08-21T02:24:10;15.60;;;13.13;;
54795;SDS011;40693;43.884;20.340;2023-08-21T02:26:35;13.15;;;11.73;;
54795;SDS011;40693;43.884;20.340;2023-08-21T02:29:01;13.50;;;12.02;;
54795;SDS011;40693;43.884;20.340;2023-08-21T02:31:30;15.63;;;12.52;;
54795;SDS011;40693;43.884;20.340;2023-08-21T02:33:55;15.73;;;13.40;;
54795;SDS011;40693;43.884;20.340;2023-08-21T02:36:21;13.85;;;12.40;;
54795;SDS011;40693;43.884;20.340;2023-08-21T02:38:47;13.95;;;12.55;;
54795;SDS011;40693;43.884;20.340;2023-08-21T02:41:14;15.38;;;12.50;;
54795;SDS011;40693;43.884;20.340;2023-08-21T02:43:40;14.43;;;12.90;;
54795;SDS011;40693;43.884;20.340;2023-08-21T02:46:06;27.15;;;14.50;;
54795;SDS011;40693;43.884;20.340;2023-08-21T02:48:31;17.20;;;13.43;;
54795;SDS011;40693;43.884;20.340;2023-08-21T02:50:57;16.60;;;13.45;;
54795;SDS011;40693;43.884;20.340;2023-08-21T02:53:23;14.20;;;12.80;;
54795;SDS011;40693;43.884;20.340;2023-08-21T02:55:49;15.60;;;13.52;;
54795;SDS011;40693;43.884;20.340;2023-08-21T02:58:15;17.52;;;13.70;;
54795;SDS011;40693;43.884;20.340;2023-08-21T03:00:41;16.60;;;12.90;;
54795;SDS011;40693;43.884;20.340;2023-08-21T03:03:07;12.73;;;11.45;;
54795;SDS011;40693;43.884;20.340;2023-08-21T03:05:33;15.65;;;13.82;;
54795;SDS011;40693;43.884;20.340;2023-08-21T03:08:01;14.07;;;12.55;;
54795;SDS011;40693;43.884;20.340;2023-08-21T03:10:27;13.75;;;12.05;;
54795;SDS011;40693;43.884;20.340;2023-08-21T03:12:58;16.48;;;12.98;;
54795;SDS011;40693;43.884;20.340;2023-08-21T03:15:24;17.00;;;12.82;;
54795;SDS011;40693;43.884;20.340;2023-08-21T03:17:50;15.27;;;12.43;;
54795;SDS011;40693;43.884;20.340;2023-08-21T03:20:15;14.00;;;11.90;;
54795;SDS011;40693;43.884;20.340;2023-08-21T03:22:42;16.73;;;12.38;;
54795;SDS011;40693;43.884;20.340;2023-08-21T03:25:08;13.70;;;12.40;;
54795;SDS011;40693;43.884;20.340;2023-08-21T03:27:35;18.45;;;13.70;;
54795;SDS011;40693;43.884;20.340;2023-08-21T03:30:05;14.57;;;12.57;;
54795;SDS011;40693;43.884;20.340;2023-08-21T03:32:32;15.85;;;13.07;;
54795;SDS011;40693;43.884;20.340;2023-08-21T03:34:58;18.83;;;12.77;;
54795;SDS011;40693;43.884;20.340;2023-08-21T03:37:23;14.73;;;13.20;;
54795;SDS011;40693;43.884;20.340;2023-08-21T03:39:49;15.52;;;13.90;;
54795;SDS011;40693;43.884;20.340;2023-08-21T03:42:15;16.35;;;12.85;;
54795;SDS011;40693;43.884;20.340;2023-08-21T03:44:41;20.67;;;16.13;;
54795;SDS011;40693;43.884;20.340;2023-08-21T03:47:07;29.60;;;23.50;;
54795;SDS011;40693;43.884;20.340;2023-08-21T03:49:32;24.63;;;21.73;;
54795;SDS011;40693;43.884;20.340;2023-08-21T03:51:58;25.02;;;20.08;;
54795;SDS011;40693;43.884;20.340;2023-08-21T03:54:24;24.80;;;22.10;;
54795;SDS011;40693;43.884;20.340;2023-08-21T03:56:49;28.17;;;22.65;;
54795;SDS011;40693;43.884;20.340;2023-08-21T03:59:15;22.20;;;18.73;;
54795;SDS011;40693;43.884;20.340;2023-08-21T04:01:41;18.77;;;16.90;;
54795;SDS011;40693;43.884;20.340;2023-08-21T04:04:07;18.88;;;16.00;;
54795;SDS011;40693;43.884;20.340;2023-08-21T04:06:32;18.83;;;15.70;;
54795;SDS011;40693;43.884;20.340;2023-08-21T04:08:58;17.52;;;13.20;;
54795;SDS011;40693;43.884;20.340;2023-08-21T04:11:24;14.85;;;13.32;;
54795;SDS011;40693;43.884;20.340;2023-08-21T04:13:49;17.15;;;13.70;;
54795;SDS011;40693;43.884;20.340;2023-08-21T04:16:15;15.38;;;13.00;;
54795;SDS011;40693;43.884;20.340;2023-08-21T04:18:42;17.45;;;14.13;;
54795;SDS011;40693;43.884;20.340;2023-08-21T04:21:08;13.95;;;12.18;;
54795;SDS011;40693;43.884;20.340;2023-08-21T04:23:35;14.18;;;12.40;;
54795;SDS011;40693;43.884;20.340;2023-08-21T04:26:01;14.10;;;11.93;;
54795;SDS011;40693;43.884;20.340;2023-08-21T04:28:28;15.82;;;12.88;;
54795;SDS011;40693;43.884;20.340;2023-08-21T04:30:57;15.52;;;11.55;;
54795;SDS011;40693;43.884;20.340;2023-08-21T04:33:27;19.20;;;13.05;;
54795;SDS011;40693;43.884;20.340;2023-08-21T04:35:53;14.52;;;12.52;;
54795;SDS011;40693;43.884;20.340;2023-08-21T04:38:19;17.00;;;14.35;;
54795;SDS011;40693;43.884;20.340;2023-08-21T04:40:45;17.10;;;13.35;;
54795;SDS011;40693;43.884;20.340;2023-08-21T04:43:10;21.88;;;14.80;;
54795;SDS011;40693;43.884;20.340;2023-08-21T04:45:36;19.17;;;14.55;;
54795;SDS011;40693;43.884;20.340;2023-08-21T04:48:04;25.23;;;14.88;;
54795;SDS011;40693;43.884;20.340;2023-08-21T04:50:30;16.98;;;14.85;;
54795;SDS011;40693;43.884;20.340;2023-08-21T04:52:56;17.55;;;14.73;;
54795;SDS011;40693;43.884;20.340;2023-08-21T04:55:22;17.58;;;14.07;;
54795;SDS011;40693;43.884;20.340;2023-08-21T04:57:49;19.30;;;13.88;;
54795;SDS011;40693;43.884;20.340;2023-08-21T05:00:14;20.45;;;13.82;;
54795;SDS011;40693;43.884;20.340;2023-08-21T05:02:40;18.65;;;14.25;;
54795;SDS011;40693;43.884;20.340;2023-08-21T05:05:06;18.80;;;13.57;;
54795;SDS011;40693;43.884;20.340;2023-08-21T05:07:34;17.25;;;13.02;;
54795;SDS011;40693;43.884;20.340;2023-08-21T05:10:00;16.95;;;12.35;;
54795;SDS011;40693;43.884;20.340;2023-08-21T05:12:26;13.88;;;11.88;;
54795;SDS011;40693;43.884;20.340;2023-08-21T05:14:52;14.65;;;11.55;;
54795;SDS011;40693;43.884;20.340;2023-08-21T05:17:19;16.38;;;12.90;;
54795;SDS011;40693;43.884;20.340;2023-08-21T05:19:45;24.02;;;14.35;;
54795;SDS011;40693;43.884;20.340;2023-08-21T05:22:10;15.93;;;11.90;;
54795;SDS011;40693;43.884;20.340;2023-08-21T05:24:36;14.93;;;12.70;;
54795;SDS011;40693;43.884;20.340;2023-08-21T05:27:02;16.48;;;12.75;;
54795;SDS011;40693;43.884;20.340;2023-08-21T05:29:29;16.02;;;12.15;;
54795;SDS011;40693;43.884;20.340;2023-08-21T05:31:55;13.35;;;11.80;;
54795;SDS011;40693;43.884;20.340;2023-08-21T05:34:21;13.73;;;12.35;;
54795;SDS011;40693;43.884;20.340;2023-08-21T05:36:46;13.15;;;11.77;;
54795;SDS011;40693;43.884;20.340;2023-08-21T05:39:12;17.38;;;12.77;;
54795;SDS011;40693;43.884;20.340;2023-08-21T05:41:38;15.77;;;13.10;;
54795;SDS011;40693;43.884;20.340;2023-08-21T05:44:04;14.57;;;12.50;;
54795;SDS011;40693;43.884;20.340;2023-08-21T05:46:30;13.32;;;11.93;;
54795;SDS011;40693;43.884;20.340;2023-08-21T05:48:56;17.02;;;13.25;;
54795;SDS011;40693;43.884;20.340;2023-08-21T05:51:21;18.70;;;12.55;;
54795;SDS011;40693;43.884;20.340;2023-08-21T05:53:47;13.00;;;11.70;;
54795;SDS011;40693;43.884;20.340;2023-08-21T05:56:13;15.40;;;12.13;;
54795;SDS011;40693;43.884;20.340;2023-08-21T05:58:39;14.85;;;12.68;;
54795;SDS011;40693;43.884;20.340;2023-08-21T06:01:04;16.13;;;12.93;;
54795;SDS011;40693;43.884;20.340;2023-08-21T06:03:30;15.40;;;12.00;;
54795;SDS011;40693;43.884;20.340;2023-08-21T06:05:56;15.38;;;11.70;;
54795;SDS011;40693;43.884;20.340;2023-08-21T06:08:22;15.05;;;12.60;;
54795;SDS011;40693;43.884;20.340;2023-08-21T06:10:51;14.93;;;12.57;;
54795;SDS011;40693;43.884;20.340;2023-08-21T06:13:17;17.63;;;13.15;;
54795;SDS011;40693;43.884;20.340;2023-08-21T06:15:43;15.02;;;11.88;;
54795;SDS011;40693;43.884;20.340;2023-08-21T06:18:10;15.15;;;12.38;;
54795;SDS011;40693;43.884;20.340;2023-08-21T06:20:36;14.90;;;11.70;;
54795;SDS011;40693;43.884;20.340;2023-08-21T06:23:01;12.55;;;11.25;;
54795;SDS011;40693;43.884;20.340;2023-08-21T06:25:27;14.85;;;12.45;;
54795;SDS011;40693;43.884;20.340;2023-08-21T06:27:55;17.00;;;11.88;;
54795;SDS011;40693;43.884;20.340;2023-08-21T06:30:21;15.48;;;12.68;;
54795;SDS011;40693;43.884;20.340;2023-08-21T06:32:47;15.48;;;11.73;;
54795;SDS011;40693;43.884;20.340;2023-08-21T06:35:12;17.40;;;11.68;;
54795;SDS011;40693;43.884;20.340;2023-08-21T06:37:40;14.63;;;11.93;;
54795;SDS011;40693;43.884;20.340;2023-08-21T06:40:06;16.42;;;12.27;;
54795;SDS011;40693;43.884;20.340;2023-08-21T06:42:32;14.25;;;11.80;;
54795;SDS011;40693;43.884;20.340;2023-08-21T06:44:57;12.43;;;11.13;;
54795;SDS011;40693;43.884;20.340;2023-08-21T06:47:23;16.80;;;13.13;;
54795;SDS011;40693;43.884;20.340;2023-08-21T06:49:49;15.70;;;13.13;;
54795;SDS011;40693;43.884;20.340;2023-08-21T06:52:15;19.10;;;13.32;;
54795;SDS011;40693;43.884;20.340;2023-08-21T06:54:41;13.75;;;11.70;;
54795;SDS011;40693;43.884;20.340;2023-08-21T06:57:07;16.00;;;12.40;;
54795;SDS011;40693;43.884;20.340;2023-08-21T06:59:32;17.42;;;12.45;;
54795;SDS011;40693;43.884;20.340;2023-08-21T07:02:01;16.13;;;12.95;;
54795;SDS011;40693;43.884;20.340;2023-08-21T07:04:27;15.27;;;13.35;;
54795;SDS011;40693;43.884;20.340;2023-08-21T07:06:53;14.52;;;12.57;;
54795;SDS011;40693;43.884;20.340;2023-08-21T07:09:19;15.32;;;12.45;;
54795;SDS011;40693;43.884;20.340;2023-08-21T07:11:45;14.48;;;12.73;;
54795;SDS011;40693;43.884;20.340;2023-08-21T07:14:11;14.45;;;11.48;;
54795;SDS011;40693;43.884;20.340;2023-08-21T07:16:39;14.18;;;12.68;;
54795;SDS011;40693;43.884;20.340;2023-08-21T07:19:05;14.35;;;12.13;;
54795;SDS011;40693;43.884;20.340;2023-08-21T07:21:30;14.77;;;12.70;;
54795;SDS011;40693;43.884;20.340;2023-08-21T07:23:57;13.30;;;11.90;;
54795;SDS011;40693;43.884;20.340;2023-08-21T07:26:22;14.60;;;13.13;;
54795;SDS011;40693;43.884;20.340;2023-08-21T07:28:48;13.85;;;12.25;;
54795;SDS011;40693;43.884;20.340;2023-08-21T07:31:14;22.05;;;12.52;;
54795;SDS011;40693;43.884;20.340;2023-08-21T07:33:39;17.50;;;13.68;;
54795;SDS011;40693;43.884;20.340;2023-08-21T07:36:05;14.93;;;13.55;;
54795;SDS011;40693;43.884;20.340;2023-08-21T07:38:31;16.77;;;12.77;;
54795;SDS011;40693;43.884;20.340;2023-08-21T07:41:04;13.82;;;12.13;;
54795;SDS011;40693;43.884;20.340;2023-08-21T07:43:32;14.55;;;12.27;;
54795;SDS011;40693;43.884;20.340;2023-08-21T07:46:01;17.05;;;15.23;;
54795;SDS011;40693;43.884;20.340;2023-08-21T07:48:29;16.17;;;14.35;;
54795;SDS011;40693;43.884;20.340;2023-08-21T07:50:54;14.57;;;13.02;;
54795;SDS011;40693;43.884;20.340;2023-08-21T07:53:21;18.77;;;13.40;;
54795;SDS011;40693;43.884;20.340;2023-08-21T07:55:47;14.10;;;12.55;;
54795;SDS011;40693;43.884;20.340;2023-08-21T07:58:13;19.90;;;13.40;;
54795;SDS011;40693;43.884;20.340;2023-08-21T08:00:40;18.08;;;12.52;;
54795;SDS011;40693;43.884;20.340;2023-08-21T08:03:07;15.65;;;12.70;;
54795;SDS011;40693;43.884;20.340;2023-08-21T08:05:33;13.98;;;12.55;;
54795;SDS011;40693;43.884;20.340;2023-08-21T08:07:59;14.05;;;12.52;;
54795;SDS011;40693;43.884;20.340;2023-08-21T08:10:25;18.92;;;13.38;;
54795;SDS011;40693;43.884;20.340;2023-08-21T08:12:51;15.77;;;12.68;;
54795;SDS011;40693;43.884;20.340;2023-08-21T08:15:18;14.23;;;12.73;;
54795;SDS011;40693;43.884;20.340;2023-08-21T08:17:44;13.82;;;12.55;;
54795;SDS011;40693;43.884;20.340;2023-08-21T08:20:17;14.20;;;12.60;;
54795;SDS011;40693;43.884;20.340;2023-08-21T08:22:43;12.98;;;11.68;;
54795;SDS011;40693;43.884;20.340;2023-08-21T08:25:08;16.35;;;12.80;;
54795;SDS011;40693;43.884;20.340;2023-08-21T08:27:35;14.38;;;12.35;;
54795;SDS011;40693;43.884;20.340;2023-08-21T08:30:01;13.82;;;12.45;;
54795;SDS011;40693;43.884;20.340;2023-08-21T08:32:28;14.13;;;12.68;;
54795;SDS011;40693;43.884;20.340;2023-08-21T08:34:54;15.02;;;12.40;;
54795;SDS011;40693;43.884;20.340;2023-08-21T08:37:20;14.20;;;12.70;;
54795;SDS011;40693;43.884;20.340;2023-08-21T08:39:46;17.77;;;12.60;;
54795;SDS011;40693;43.884;20.340;2023-08-21T08:42:12;13.57;;;12.27;;
54795;SDS011;40693;43.884;20.340;2023-08-21T08:44:39;15.52;;;13.25;;
54795;SDS011;40693;43.884;20.340;2023-08-21T08:47:06;13.95;;;12.43;;
54795;SDS011;40693;43.884;20.340;2023-08-21T08:49:35;13.98;;;12.68;;
54795;SDS011;40693;43.884;20.340;2023-08-21T08:52:02;13.70;;;12.40;;
54795;SDS011;40693;43.884;20.340;2023-08-21T08:54:29;14.70;;;12.25;;
54795;SDS011;40693;43.884;20.340;2023-08-21T08:56:56;15.30;;;12.60;;
54795;SDS011;40693;43.884;20.340;2023-08-21T08:59:23;16.55;;;11.82;;
54795;SDS011;40693;43.884;20.340;2023-08-21T09:01:49;16.02;;;12.20;;
54795;SDS011;40693;43.884;20.340;2023-08-21T09:04:15;12.50;;;11.27;;
54795;SDS011;40693;43.884;20.340;2023-08-21T09:06:41;12.20;;;11.00;;
54795;SDS011;40693;43.884;20.340;2023-08-21T09:09:07;13.38;;;11.98;;
54795;SDS011;40693;43.884;20.340;2023-08-21T09:11:35;14.75;;;11.68;;
54795;SDS011;40693;43.884;20.340;2023-08-21T09:14:06;13.30;;;12.00;;
54795;SDS011;40693;43.884;20.340;2023-08-21T09:16:32;12.73;;;11.52;;
54795;SDS011;40693;43.884;20.340;2023-08-21T09:18:58;14.75;;;11.48;;
54795;SDS011;40693;43.884;20.340;2023-08-21T09:21:24;12.60;;;11.23;;
54795;SDS011;40693;43.884;20.340;2023-08-21T09:23:58;11.98;;;10.63;;
54795;SDS011;40693;43.884;20.340;2023-08-21T09:26:25;11.52;;;10.32;;
54795;SDS011;40693;43.884;20.340;2023-08-21T09:28:52;13.02;;;10.25;;
54795;SDS011;40693;43.884;20.340;2023-08-21T09:31:36;14.50;;;11.05;;
54795;SDS011;40693;43.884;20.340;2023-08-21T09:34:02;11.57;;;10.48;;
54795;SDS011;40693;43.884;20.340;2023-08-21T09:36:32;13.20;;;10.07;;
54795;SDS011;40693;43.884;20.340;2023-08-21T09:38:59;11.95;;;10.52;;
54795;SDS011;40693;43.884;20.340;2023-08-21T09:41:25;11.98;;;10.82;;
54795;SDS011;40693;43.884;20.340;2023-08-21T09:43:51;13.90;;;11.20;;
54795;SDS011;40693;43.884;20.340;2023-08-21T09:46:23;11.55;;;9.90;;
54795;SDS011;40693;43.884;20.340;2023-08-21T09:48:49;13.18;;;10.95;;
54795;SDS011;40693;43.884;20.340;2023-08-21T09:51:17;11.65;;;9.38;;
54795;SDS011;40693;43.884;20.340;2023-08-21T09:53:44;12.48;;;9.82;;
54795;SDS011;40693;43.884;20.340;2023-08-21T09:56:11;11.43;;;9.88;;
54795;SDS011;40693;43.884;20.340;2023-08-21T09:58:37;11.57;;;9.75;;
54795;SDS011;40693;43.884;20.340;2023-08-21T10:01:07;10.82;;;9.45;;
54795;SDS011;40693;43.884;20.340;2023-08-21T10:03:40;11.68;;;10.48;;
54795;SDS011;40693;43.884;20.340;2023-08-21T10:06:10;10.27;;;9.27;;
54795;SDS011;40693;43.884;20.340;2023-08-21T10:08:38;10.85;;;9.77;;
54795;SDS011;40693;43.884;20.340;2023-08-21T10:11:06;9.27;;;8.35;;
54795;SDS011;40693;43.884;20.340;2023-08-21T10:13:34;14.52;;;8.93;;
54795;SDS011;40693;43.884;20.340;2023-08-21T10:16:02;14.32;;;9.45;;
54795;SDS011;40693;43.884;20.340;2023-08-21T10:18:35;13.15;;;9.23;;
54795;SDS011;40693;43.884;20.340;2023-08-21T10:21:15;9.50;;;8.40;;
54795;SDS011;40693;43.884;20.340;2023-08-21T10:23:42;9.95;;;8.07;;
54795;SDS011;40693;43.884;20.340;2023-08-21T10:26:12;15.35;;;10.23;;
54795;SDS011;40693;43.884;20.340;2023-08-21T10:28:48;13.10;;;8.40;;
54795;SDS011;40693;43.884;20.340;2023-08-21T10:33:59;10.90;;;8.10;;
54795;SDS011;40693;43.884;20.340;2023-08-21T10:39:22;8.95;;;8.15;;
54795;SDS011;40693;43.884;20.340;2023-08-21T10:41:55;9.85;;;7.95;;
54795;SDS011;40693;43.884;20.340;2023-08-21T10:47:22;12.07;;;8.23;;
54795;SDS011;40693;43.884;20.340;2023-08-21T10:49:55;9.90;;;8.85;;
54795;SDS011;40693;43.884;20.340;2023-08-21T10:55:07;9.27;;;8.15;;
54795;SDS011;40693;43.884;20.340;2023-08-21T10:57:37;12.35;;;8.60;;
54795;SDS011;40693;43.884;20.340;2023-08-21T11:02:29;8.98;;;7.68;;
54795;SDS011;40693;43.884;20.340;2023-08-21T11:04:56;11.18;;;7.90;;
54795;SDS011;40693;43.884;20.340;2023-08-21T11:07:22;10.68;;;7.97;;
54795;SDS011;40693;43.884;20.340;2023-08-21T11:09:49;10.63;;;8.23;;
54795;SDS011;40693;43.884;20.340;2023-08-21T11:12:16;9.05;;;7.70;;
54795;SDS011;40693;43.884;20.340;2023-08-21T11:14:44;11.13;;;8.07;;
54795;SDS011;40693;43.884;20.340;2023-08-21T11:17:10;10.52;;;8.50;;
54795;SDS011;40693;43.884;20.340;2023-08-21T11:19:37;9.68;;;8.68;;
54795;SDS011;40693;43.884;20.340;2023-08-21T11:22:03;11.25;;;8.23;;
54795;SDS011;40693;43.884;20.340;2023-08-21T11:27:09;11.38;;;8.10;;
54795;SDS011;40693;43.884;20.340;2023-08-21T11:29:58;10.18;;;8.88;;
54795;SDS011;40693;43.884;20.340;2023-08-21T11:32:26;9.05;;;8.07;;
54795;SDS011;40693;43.884;20.340;2023-08-21T11:34:53;8.43;;;7.68;;
54795;SDS011;40693;43.884;20.340;2023-08-21T11:37:21;8.85;;;7.95;;
54795;SDS011;40693;43.884;20.340;2023-08-21T11:39:51;8.82;;;7.95;;
54795;SDS011;40693;43.884;20.340;2023-08-21T11:42:19;9.68;;;7.93;;
54795;SDS011;40693;43.884;20.340;2023-08-21T11:47:17;8.73;;;7.85;;
54795;SDS011;40693;43.884;20.340;2023-08-21T11:49:44;8.82;;;7.70;;
54795;SDS011;40693;43.884;20.340;2023-08-21T11:52:18;10.93;;;8.15;;
54795;SDS011;40693;43.884;20.340;2023-08-21T11:54:47;10.40;;;7.43;;
54795;SDS011;40693;43.884;20.340;2023-08-21T11:57:14;10.07;;;8.50;;
54795;SDS011;40693;43.884;20.340;2023-08-21T11:59:40;9.90;;;8.50;;
54795;SDS011;40693;43.884;20.340;2023-08-21T12:02:21;13.23;;;8.32;;
54795;SDS011;40693;43.884;20.340;2023-08-21T12:04:52;11.23;;;8.15;;
54795;SDS011;40693;43.884;20.340;2023-08-21T12:07:31;10.75;;;8.52;;
54795;SDS011;40693;43.884;20.340;2023-08-21T12:09:58;9.65;;;8.25;;
54795;SDS011;40693;43.884;20.340;2023-08-21T12:12:24;9.93;;;8.43;;
54795;SDS011;40693;43.884;20.340;2023-08-21T12:14:50;10.10;;;8.45;;
54795;SDS011;40693;43.884;20.340;2023-08-21T12:17:16;13.43;;;8.43;;
54795;SDS011;40693;43.884;20.340;2023-08-21T12:19:42;8.90;;;7.97;;
54795;SDS011;40693;43.884;20.340;2023-08-21T12:22:08;10.15;;;8.20;;
54795;SDS011;40693;43.884;20.340;2023-08-21T12:24:35;11.80;;;9.55;;
54795;SDS011;40693;43.884;20.340;2023-08-21T12:27:02;11.30;;;8.60;;
54795;SDS011;40693;43.884;20.340;2023-08-21T12:29:29;10.95;;;8.43;;
54795;SDS011;40693;43.884;20.340;2023-08-21T12:31:55;10.35;;;7.78;;
54795;SDS011;40693;43.884;20.340;2023-08-21T12:34:20;11.10;;;9.40;;
54795;SDS011;40693;43.884;20.340;2023-08-21T12:36:46;12.15;;;9.30;;
54795;SDS011;40693;43.884;20.340;2023-08-21T12:39:12;9.63;;;8.63;;
54795;SDS011;40693;43.884;20.340;2023-08-21T12:41:40;11.02;;;8.65;;
54795;SDS011;40693;43.884;20.340;2023-08-21T12:44:06;9.70;;;8.80;;
54795;SDS011;40693;43.884;20.340;2023-08-21T12:46:34;10.38;;;9.40;;
54795;SDS011;40693;43.884;20.340;2023-08-21T12:49:00;9.77;;;8.90;;
54795;SDS011;40693;43.884;20.340;2023-08-21T12:51:27;9.75;;;8.82;;
54795;SDS011;40693;43.884;20.340;2023-08-21T12:53:54;10.55;;;8.80;;
54795;SDS011;40693;43.884;20.340;2023-08-21T12:56:20;10.50;;;9.45;;
54795;SDS011;40693;43.884;20.340;2023-08-21T12:58:46;9.68;;;8.82;;
54795;SDS011;40693;43.884;20.340;2023-08-21T13:01:12;12.98;;;10.18;;
54795;SDS011;40693;43.884;20.340;2023-08-21T13:03:38;9.85;;;8.88;;
54795;SDS011;40693;43.884;20.340;2023-08-21T13:06:04;10.65;;;9.55;;
54795;SDS011;40693;43.884;20.340;2023-08-21T13:08:30;13.30;;;9.88;;
54795;SDS011;40693;43.884;20.340;2023-08-21T13:10:56;11.15;;;9.98;;
54795;SDS011;40693;43.884;20.340;2023-08-21T13:13:21;13.30;;;9.32;;
54795;SDS011;40693;43.884;20.340;2023-08-21T13:15:47;11.55;;;10.35;;
54795;SDS011;40693;43.884;20.340;2023-08-21T13:18:13;10.82;;;9.40;;
54795;SDS011;40693;43.884;20.340;2023-08-21T13:20:41;10.88;;;9.48;;
54795;SDS011;40693;43.884;20.340;2023-08-21T13:23:07;10.05;;;9.05;;
54795;SDS011;40693;43.884;20.340;2023-08-21T13:25:33;11.73;;;9.93;;
54795;SDS011;40693;43.884;20.340;2023-08-21T13:28:00;11.00;;;9.77;;
54795;SDS011;40693;43.884;20.340;2023-08-21T13:30:28;13.00;;;9.85;;
54795;SDS011;40693;43.884;20.340;2023-08-21T13:32:54;11.43;;;10.27;;
54795;SDS011;40693;43.884;20.340;2023-08-21T13:35:22;12.98;;;9.15;;
54795;SDS011;40693;43.884;20.340;2023-08-21T13:37:48;10.57;;;9.07;;
54795;SDS011;40693;43.884;20.340;2023-08-21T13:40:15;11.52;;;10.13;;
54795;SDS011;40693;43.884;20.340;2023-08-21T13:42:44;11.75;;;9.55;;
54795;SDS011;40693;43.884;20.340;2023-08-21T13:45:14;11.63;;;9.95;;
54795;SDS011;40693;43.884;20.340;2023-08-21T13:47:42;10.40;;;9.25;;
54795;SDS011;40693;43.884;20.340;2023-08-21T13:50:09;11.05;;;9.82;;
54795;SDS011;40693;43.884;20.340;2023-08-21T13:52:35;10.95;;;9.60;;
54795;SDS011;40693;43.884;20.340;2023-08-21T13:55:03;14.30;;;9.20;;
54795;SDS011;40693;43.884;20.340;2023-08-21T13:57:30;10.75;;;8.50;;
54795;SDS011;40693;43.884;20.340;2023-08-21T13:59:58;10.15;;;7.85;;
54795;SDS011;40693;43.884;20.340;2023-08-21T14:02:25;10.05;;;8.52;;
54795;SDS011;40693;43.884;20.340;2023-08-21T14:04:51;8.38;;;7.57;;
54795;SDS011;40693;43.884;20.340;2023-08-21T14:07:16;9.90;;;8.05;;
54795;SDS011;40693;43.884;20.340;2023-08-21T14:09:42;10.95;;;7.85;;
54795;SDS011;40693;43.884;20.340;2023-08-21T14:12:08;10.32;;;7.38;;
54795;SDS011;40693;43.884;20.340;2023-08-21T14:14:34;12.70;;;8.80;;
54795;SDS011;40693;43.884;20.340;2023-08-21T14:17:01;12.65;;;7.68;;
54795;SDS011;40693;43.884;20.340;2023-08-21T14:19:27;11.57;;;8.40;;
54795;SDS011;40693;43.884;20.340;2023-08-21T14:21:53;11.30;;;8.02;;
54795;SDS011;40693;43.884;20.340;2023-08-21T14:24:19;10.18;;;8.73;;
54795;SDS011;40693;43.884;20.340;2023-08-21T14:26:45;10.43;;;9.13;;
54795;SDS011;40693;43.884;20.340;2023-08-21T14:29:10;12.50;;;9.75;;
54795;SDS011;40693;43.884;20.340;2023-08-21T14:31:36;10.02;;;9.00;;
54795;SDS011;40693;43.884;20.340;2023-08-21T14:34:02;11.43;;;10.25;;
54795;SDS011;40693;43.884;20.340;2023-08-21T14:36:28;11.45;;;9.70;;
54795;SDS011;40693;43.884;20.340;2023-08-21T14:38:53;12.50;;;10.32;;